createdAt,value
2019-02-26T00:00:42.300Z,4.90
2019-02-26T00:01:39.095Z,5.00
2019-02-26T00:02:39.012Z,5.00
2019-02-26T00:03:38.899Z,4.80
2019-02-26T00:04:38.801Z,5.10
2019-02-26T00:05:38.701Z,5.20
2019-02-26T00:06:38.607Z,5.40
2019-02-26T00:07:38.523Z,5.20
2019-02-26T00:08:38.405Z,5.20
2019-02-26T00:09:38.313Z,5.60
2019-02-26T00:10:39.141Z,5.40
2019-02-26T00:11:40.149Z,5.80
2019-02-26T00:12:38.028Z,5.80
2019-02-26T00:13:37.912Z,6.00
2019-02-26T00:14:37.819Z,6.20
2019-02-26T00:15:38.566Z,6.30
2019-02-26T00:16:39.731Z,6.00
2019-02-26T00:17:40.557Z,5.80
2019-02-26T00:18:37.422Z,5.50
2019-02-26T00:19:37.322Z,5.90
2019-02-26T00:20:39.217Z,6.10
2019-02-26T00:21:37.123Z,5.50
2019-02-26T00:22:38.885Z,5.70
2019-02-26T00:23:36.923Z,5.80
2019-02-26T00:24:37.765Z,6.10
2019-02-26T00:25:36.753Z,5.70
2019-02-26T00:26:38.366Z,5.60
2019-02-26T00:27:36.548Z,5.80
2019-02-26T00:28:38.944Z,5.50
2019-02-26T00:29:36.336Z,6.00
2019-02-26T00:30:37.899Z,5.90
2019-02-26T00:31:36.136Z,5.80
2019-02-26T00:32:38.121Z,6.40
2019-02-26T00:33:35.962Z,6.30
2019-02-26T00:34:37.346Z,6.50
2019-02-26T00:35:35.736Z,6.30
2019-02-26T00:36:36.503Z,6.20
2019-02-26T00:37:35.544Z,6.20
2019-02-26T00:38:37.532Z,6.40
2019-02-26T00:39:35.339Z,6.10
2019-02-26T00:40:37.086Z,6.50
2019-02-26T00:41:35.782Z,6.30
2019-02-26T00:42:36.070Z,6.00
2019-02-26T00:43:36.737Z,5.80
2019-02-26T00:44:37.132Z,6.20
2019-02-26T00:45:36.936Z,5.90
2019-02-26T00:46:35.237Z,5.80
2019-02-26T00:47:36.312Z,6.40
2019-02-26T00:48:36.075Z,5.90
2019-02-26T00:49:34.347Z,6.50
2019-02-26T00:50:35.572Z,6.10
2019-02-26T00:51:34.149Z,6.20
2019-02-26T00:52:34.831Z,6.10
2019-02-26T00:53:33.970Z,5.80
2019-02-26T00:54:34.396Z,6.20
2019-02-26T00:55:34.881Z,5.80
2019-02-26T00:56:34.700Z,6.50
2019-02-26T00:57:35.756Z,5.80
2019-02-26T00:58:37.018Z,6.10
2019-02-26T00:59:36.342Z,6.30
2019-02-26T01:00:35.353Z,6.20
2019-02-26T01:01:33.158Z,6.70
2019-02-26T01:02:33.071Z,6.30
2019-02-26T01:03:33.099Z,6.80
2019-02-26T01:04:32.857Z,6.60
2019-02-26T01:05:34.028Z,6.90
2019-02-26T01:06:33.511Z,6.20
2019-02-26T01:07:32.560Z,6.70
2019-02-26T01:08:32.479Z,6.70
2019-02-26T01:09:34.012Z,6.30
2019-02-26T01:10:34.449Z,6.50
2019-02-26T01:11:32.163Z,6.60
2019-02-26T01:12:33.078Z,6.50
2019-02-26T01:13:32.298Z,6.30
2019-02-26T01:14:31.861Z,6.70
2019-02-26T01:15:31.765Z,6.50
2019-02-26T01:16:31.663Z,6.30
2019-02-26T01:17:33.266Z,6.20
2019-02-26T01:18:31.487Z,6.30
2019-02-26T01:19:32.150Z,6.90
2019-02-26T01:20:32.017Z,6.70
2019-02-26T01:21:33.556Z,6.60
2019-02-26T01:22:32.823Z,6.90
2019-02-26T01:23:30.985Z,6.60
2019-02-26T01:24:32.528Z,6.90
2019-02-26T01:25:30.768Z,6.70
2019-02-26T01:26:30.668Z,6.90
2019-02-26T01:27:30.571Z,6.60
2019-02-26T01:28:30.486Z,6.10
2019-02-26T01:29:32.213Z,6.10
2019-02-26T01:30:33.175Z,6.00
2019-02-26T01:31:32.102Z,6.10
2019-02-26T01:32:30.070Z,6.10
2019-02-26T01:33:31.932Z,6.10
2019-02-26T01:34:29.872Z,5.90
2019-02-26T01:35:30.741Z,5.80
2019-02-26T01:36:29.672Z,6.40
2019-02-26T01:37:29.957Z,5.80
2019-02-26T01:38:29.591Z,6.30
2019-02-26T01:39:29.373Z,6.80
2019-02-26T01:40:29.282Z,6.20
2019-02-26T01:41:29.174Z,6.50
2019-02-26T01:42:29.878Z,6.80
2019-02-26T01:43:28.990Z,7.00
2019-02-26T01:44:32.300Z,6.30
2019-02-26T01:45:31.751Z,5.90
2019-02-26T01:46:30.082Z,6.30
2019-02-26T01:47:28.640Z,6.80
2019-02-26T01:48:29.924Z,6.50
2019-02-26T01:49:28.589Z,5.80
2019-02-26T01:50:28.846Z,6.20
2019-02-26T01:51:28.703Z,6.10
2019-02-26T01:52:28.178Z,6.20
2019-02-26T01:53:27.995Z,6.30
2019-02-26T01:54:30.051Z,6.00
2019-02-26T01:55:27.877Z,6.00
2019-02-26T01:56:27.679Z,6.30
2019-02-26T01:57:27.866Z,6.60
2019-02-26T01:58:27.493Z,6.70
2019-02-26T01:59:27.395Z,6.70
2019-02-26T02:00:27.285Z,6.00
2019-02-26T02:01:27.178Z,6.30
2019-02-26T02:02:28.218Z,5.90
2019-02-26T02:03:28.028Z,5.70
2019-02-26T02:04:26.880Z,6.10
2019-02-26T02:05:29.487Z,5.70
2019-02-26T02:06:26.683Z,6.10
2019-02-26T02:07:28.697Z,6.20
2019-02-26T02:08:26.498Z,6.70
2019-02-26T02:09:26.382Z,6.00
2019-02-26T02:10:26.280Z,6.60
2019-02-26T02:11:28.278Z,7.00
2019-02-26T02:12:29.542Z,6.10
2019-02-26T02:13:28.353Z,5.70
2019-02-26T02:14:25.882Z,6.00
2019-02-26T02:15:25.783Z,6.30
2019-02-26T02:16:27.301Z,6.40
2019-02-26T02:17:25.589Z,5.50
2019-02-26T02:18:27.594Z,5.80
2019-02-26T02:19:27.421Z,5.50
2019-02-26T02:20:25.284Z,5.40
2019-02-26T02:21:25.991Z,6.10
2019-02-26T02:22:25.085Z,5.40
2019-02-26T02:23:25.803Z,5.50
2019-02-26T02:24:24.886Z,5.40
2019-02-26T02:25:24.785Z,6.00
2019-02-26T02:26:24.689Z,6.20
2019-02-26T02:27:27.298Z,6.30
2019-02-26T02:28:26.233Z,5.40
2019-02-26T02:29:25.925Z,5.70
2019-02-26T02:30:30.442Z,5.90
2019-02-26T02:31:24.569Z,5.50
2019-02-26T02:32:26.109Z,6.00
2019-02-26T02:33:26.693Z,6.40
2019-02-26T02:34:27.034Z,5.90
2019-02-26T02:35:23.784Z,6.40
2019-02-26T02:36:26.273Z,6.20
2019-02-26T02:37:26.221Z,5.40
2019-02-26T02:38:23.491Z,5.20
2019-02-26T02:39:24.364Z,5.60
2019-02-26T02:40:23.290Z,5.60
2019-02-26T02:41:23.188Z,5.90
2019-02-26T02:42:23.090Z,6.00
2019-02-26T02:43:23.551Z,6.00
2019-02-26T02:44:23.624Z,5.50
2019-02-26T02:45:22.789Z,6.30
2019-02-26T02:46:22.688Z,6.10
2019-02-26T02:47:25.059Z,5.90
2019-02-26T02:48:22.492Z,6.30
2019-02-26T02:49:22.404Z,5.80
2019-02-26T02:50:22.291Z,6.60
2019-02-26T02:51:22.194Z,5.90
2019-02-26T02:52:24.130Z,6.70
2019-02-26T02:53:23.938Z,6.90
2019-02-26T02:54:23.708Z,6.10
2019-02-26T02:55:21.790Z,6.90
2019-02-26T02:56:21.693Z,6.40
2019-02-26T02:57:23.780Z,5.80
2019-02-26T02:58:23.895Z,6.20
2019-02-26T02:59:21.412Z,6.10
2019-02-26T03:00:23.898Z,6.10
2019-02-26T03:01:24.443Z,6.50
2019-02-26T03:02:23.023Z,6.20
2019-02-26T03:03:20.991Z,6.00
2019-02-26T03:04:22.199Z,5.90
2019-02-26T03:05:20.796Z,5.80
2019-02-26T03:06:20.698Z,5.90
2019-02-26T03:07:21.550Z,6.10
2019-02-26T03:08:22.410Z,6.20
2019-02-26T03:09:20.411Z,6.30
2019-02-26T03:10:20.296Z,6.10
2019-02-26T03:11:20.195Z,6.10
2019-02-26T03:12:20.100Z,6.50
2019-02-26T03:13:22.780Z,5.80
2019-02-26T03:14:19.913Z,6.10
2019-02-26T03:15:21.823Z,6.60
2019-02-26T03:16:21.957Z,6.30
2019-02-26T03:17:20.231Z,6.00
2019-02-26T03:18:19.497Z,6.20
2019-02-26T03:19:19.415Z,6.70
2019-02-26T03:20:19.293Z,6.60
2019-02-26T03:21:21.578Z,6.20
2019-02-26T03:22:21.581Z,6.00
2019-02-26T03:23:19.919Z,6.10
2019-02-26T03:24:18.918Z,5.90
2019-02-26T03:25:23.015Z,5.70
2019-02-26T03:26:20.553Z,6.00
2019-02-26T03:27:18.593Z,5.90
2019-02-26T03:28:18.496Z,6.10
2019-02-26T03:29:18.413Z,6.10
2019-02-26T03:30:26.260Z,6.60
2019-02-26T03:31:18.198Z,9.00
2019-02-26T03:32:18.100Z,11.60
2019-02-26T03:33:17.998Z,23.30
2019-02-26T03:34:21.730Z,37.20
2019-02-26T03:35:19.497Z,30.70
2019-02-26T03:36:19.262Z,9.30
2019-02-26T03:37:17.599Z,6.70
2019-02-26T03:38:18.128Z,6.50
2019-02-26T03:39:17.421Z,6.60
2019-02-26T03:40:17.320Z,5.80
2019-02-26T03:41:20.366Z,6.30
2019-02-26T03:42:20.637Z,5.50
2019-02-26T03:43:17.001Z,6.00
2019-02-26T03:44:16.939Z,6.40
2019-02-26T03:45:23.633Z,5.80
2019-02-26T03:46:16.706Z,5.90
2019-02-26T03:47:18.765Z,6.40
2019-02-26T03:48:20.099Z,6.30
2019-02-26T03:49:16.421Z,6.50
2019-02-26T03:50:16.306Z,6.10
2019-02-26T03:51:17.795Z,6.40
2019-02-26T03:52:16.106Z,6.50
2019-02-26T03:53:16.007Z,6.30
2019-02-26T03:54:15.925Z,6.40
2019-02-26T03:55:18.727Z,6.50
2019-02-26T03:56:17.654Z,6.30
2019-02-26T03:57:16.838Z,6.20
2019-02-26T03:58:15.524Z,6.10
2019-02-26T03:59:15.415Z,5.90
2019-02-26T04:00:17.444Z,6.00
2019-02-26T04:01:18.256Z,5.80
2019-02-26T04:02:17.443Z,6.20
2019-02-26T04:03:17.301Z,5.90
2019-02-26T04:04:14.947Z,6.40
2019-02-26T04:05:14.913Z,6.70
2019-02-26T04:06:14.711Z,6.20
2019-02-26T04:07:14.613Z,6.70
2019-02-26T04:08:16.320Z,6.50
2019-02-26T04:09:16.594Z,6.50
2019-02-26T04:10:14.328Z,6.30
2019-02-26T04:11:16.549Z,6.60
2019-02-26T04:12:15.382Z,6.00
2019-02-26T04:13:14.016Z,6.30
2019-02-26T04:14:17.342Z,6.10
2019-02-26T04:15:13.835Z,5.80
2019-02-26T04:16:13.715Z,6.00
2019-02-26T04:17:13.617Z,6.60
2019-02-26T04:18:13.525Z,6.50
2019-02-26T04:19:13.517Z,6.60
2019-02-26T04:20:13.333Z,6.60
2019-02-26T04:21:15.766Z,6.60
2019-02-26T04:22:15.139Z,6.20
2019-02-26T04:23:14.262Z,6.50
2019-02-26T04:24:12.922Z,6.60
2019-02-26T04:25:12.837Z,6.40
2019-02-26T04:26:15.992Z,6.40
2019-02-26T04:27:12.617Z,6.50
2019-02-26T04:28:12.522Z,6.80
2019-02-26T04:29:12.426Z,6.80
2019-02-26T04:30:13.573Z,6.90
2019-02-26T04:31:12.221Z,6.70
2019-02-26T04:32:15.028Z,7.30
2019-02-26T04:33:14.096Z,6.70
2019-02-26T04:34:11.923Z,6.80
2019-02-26T04:35:11.836Z,7.30
2019-02-26T04:36:14.412Z,6.80
2019-02-26T04:37:12.908Z,6.60
2019-02-26T04:38:11.526Z,6.80
2019-02-26T04:39:13.674Z,7.30
2019-02-26T04:40:14.006Z,7.00
2019-02-26T04:41:13.378Z,7.60
2019-02-26T04:42:12.019Z,6.90
2019-02-26T04:43:12.891Z,7.40
2019-02-26T04:44:10.926Z,7.00
2019-02-26T04:45:10.846Z,6.90
2019-02-26T04:46:13.010Z,7.00
2019-02-26T04:47:10.732Z,7.10
2019-02-26T04:48:14.726Z,7.20
2019-02-26T04:49:10.424Z,7.60
2019-02-26T04:50:10.358Z,7.00
2019-02-26T04:51:10.224Z,7.20
2019-02-26T04:52:10.928Z,7.10
2019-02-26T04:53:11.065Z,6.70
2019-02-26T04:54:09.928Z,6.90
2019-02-26T04:55:09.843Z,6.80
2019-02-26T04:56:12.856Z,6.60
2019-02-26T04:57:09.630Z,6.30
2019-02-26T04:58:12.229Z,6.80
2019-02-26T04:59:11.810Z,6.40
2019-02-26T05:00:10.539Z,6.60
2019-02-26T05:01:10.103Z,6.60
2019-02-26T05:02:09.127Z,6.10
2019-02-26T05:03:13.543Z,6.30
2019-02-26T05:04:08.932Z,6.20
2019-02-26T05:05:08.851Z,6.10
2019-02-26T05:06:10.848Z,6.80
2019-02-26T05:07:12.776Z,6.40
2019-02-26T05:08:10.458Z,6.60
2019-02-26T05:09:10.492Z,6.50
2019-02-26T05:10:08.348Z,6.90
2019-02-26T05:11:08.245Z,6.60
2019-02-26T05:12:08.131Z,7.00
2019-02-26T05:13:09.725Z,6.60
2019-02-26T05:14:09.211Z,6.70
2019-02-26T05:15:11.544Z,7.00
2019-02-26T05:16:07.731Z,7.10
2019-02-26T05:17:07.635Z,7.00
2019-02-26T05:18:07.572Z,7.20
2019-02-26T05:19:07.430Z,7.00
2019-02-26T05:20:10.472Z,7.10
2019-02-26T05:21:08.366Z,7.30
2019-02-26T05:22:07.174Z,6.70
2019-02-26T05:23:07.033Z,7.00
2019-02-26T05:24:06.935Z,7.00
2019-02-26T05:25:07.439Z,7.00
2019-02-26T05:26:08.362Z,7.00
2019-02-26T05:27:09.515Z,6.60
2019-02-26T05:28:09.330Z,7.10
2019-02-26T05:29:06.437Z,7.20
2019-02-26T05:30:07.086Z,7.40
2019-02-26T05:31:06.576Z,6.90
2019-02-26T05:32:07.229Z,7.50
2019-02-26T05:33:06.038Z,6.80
2019-02-26T05:34:05.936Z,7.00
2019-02-26T05:35:05.849Z,6.80
2019-02-26T05:36:06.990Z,7.10
2019-02-26T05:37:08.118Z,7.90
2019-02-26T05:38:06.806Z,8.00
2019-02-26T05:39:05.441Z,7.80
2019-02-26T05:40:07.070Z,8.50
2019-02-26T05:41:05.241Z,8.70
2019-02-26T05:42:06.308Z,8.90
2019-02-26T05:43:06.716Z,9.10
2019-02-26T05:44:08.473Z,8.30
2019-02-26T05:45:08.405Z,9.20
2019-02-26T05:46:04.742Z,8.10
2019-02-26T05:47:04.639Z,8.50
2019-02-26T05:48:04.537Z,8.70
2019-02-26T05:49:06.679Z,8.60
2019-02-26T05:50:06.943Z,8.70
2019-02-26T05:51:05.589Z,8.40
2019-02-26T05:52:04.852Z,8.60
2019-02-26T05:53:05.526Z,8.60
2019-02-26T05:54:07.720Z,8.20
2019-02-26T05:55:03.842Z,9.90
2019-02-26T05:56:03.761Z,9.30
2019-02-26T05:57:04.795Z,9.80
2019-02-26T05:58:03.544Z,9.80
2019-02-26T05:59:06.791Z,9.60
2019-02-26T06:00:03.344Z,8.90
2019-02-26T06:01:03.257Z,8.20
2019-02-26T06:02:03.143Z,9.10
2019-02-26T06:03:03.594Z,9.30
2019-02-26T06:04:04.773Z,12.10
2019-02-26T06:05:02.839Z,11.40
2019-02-26T06:06:02.762Z,17.10
2019-02-26T06:07:04.600Z,15.90
2019-02-26T06:08:02.541Z,13.10
2019-02-26T06:09:05.048Z,12.60
2019-02-26T06:10:02.443Z,12.80
2019-02-26T06:11:02.256Z,12.30
2019-02-26T06:12:02.141Z,11.00
2019-02-26T06:13:02.766Z,10.00
2019-02-26T06:14:06.703Z,9.70
2019-02-26T06:15:05.194Z,9.90
2019-02-26T06:16:02.836Z,9.90
2019-02-26T06:17:01.745Z,9.20
2019-02-26T06:18:01.545Z,9.10
2019-02-26T06:19:01.443Z,9.90
2019-02-26T06:20:02.727Z,10.30
2019-02-26T06:21:01.474Z,10.60
2019-02-26T06:22:01.144Z,9.60
2019-02-26T06:23:01.041Z,10.10
2019-02-26T06:24:01.048Z,10.70
2019-02-26T06:25:07.008Z,11.20
2019-02-26T06:26:02.374Z,12.60
2019-02-26T06:27:00.640Z,11.00
2019-02-26T06:28:04.450Z,10.50
2019-02-26T06:29:00.441Z,11.40
2019-02-26T06:30:03.172Z,11.60
2019-02-26T06:31:00.397Z,11.90
2019-02-26T06:32:00.893Z,11.00
2019-02-26T06:33:04.107Z,15.60
2019-02-26T06:34:03.542Z,16.20
2019-02-26T06:34:59.849Z,15.60
2019-02-26T06:36:01.545Z,16.20
2019-02-26T06:36:59.652Z,16.30
2019-02-26T06:38:01.900Z,18.00
2019-02-26T06:39:01.352Z,19.50
2019-02-26T06:40:00.611Z,19.60
2019-02-26T06:40:59.263Z,19.10
2019-02-26T06:41:59.144Z,21.60
2019-02-26T06:42:59.045Z,22.50
2019-02-26T06:43:58.949Z,21.50
2019-02-26T06:44:58.953Z,21.50
2019-02-26T06:46:00.261Z,19.60
2019-02-26T06:47:00.289Z,19.10
2019-02-26T06:47:58.652Z,20.70
2019-02-26T06:48:58.445Z,20.80
2019-02-26T06:49:58.350Z,18.90
2019-02-26T06:50:59.872Z,12.40
2019-02-26T06:51:58.254Z,8.50
2019-02-26T06:52:58.050Z,9.00
2019-02-26T06:53:58.839Z,8.80
2019-02-26T06:55:00.125Z,9.70
2019-02-26T06:55:58.608Z,7.80
2019-02-26T06:56:57.658Z,8.00
2019-02-26T06:57:57.552Z,7.50
2019-02-26T06:58:57.556Z,7.00
2019-02-26T06:59:59.066Z,7.30
2019-02-26T07:00:57.268Z,7.20
2019-02-26T07:01:57.151Z,7.20
2019-02-26T07:02:57.051Z,7.70
2019-02-26T07:03:56.953Z,7.60
2019-02-26T07:04:56.982Z,7.20
2019-02-26T07:05:56.771Z,7.20
2019-02-26T07:06:59.184Z,6.80
2019-02-26T07:07:57.012Z,6.90
2019-02-26T07:08:56.456Z,6.60
2019-02-26T07:09:58.112Z,7.00
2019-02-26T07:10:56.271Z,6.90
2019-02-26T07:11:56.156Z,6.70
2019-02-26T07:12:56.058Z,7.00
2019-02-26T07:13:55.959Z,6.70
2019-02-26T07:14:57.977Z,6.80
2019-02-26T07:15:55.774Z,6.50
2019-02-26T07:16:56.564Z,7.00
2019-02-26T07:17:55.562Z,6.60
2019-02-26T07:18:55.460Z,6.80
2019-02-26T07:19:57.312Z,6.90
2019-02-26T07:20:57.815Z,6.40
2019-02-26T07:21:55.162Z,6.90
2019-02-26T07:22:55.067Z,6.90
2019-02-26T07:23:56.453Z,7.00
2019-02-26T07:24:54.868Z,6.50
2019-02-26T07:25:54.784Z,6.70
2019-02-26T07:26:54.672Z,6.70
2019-02-26T07:27:56.316Z,7.00
2019-02-26T07:28:54.472Z,6.50
2019-02-26T07:29:54.369Z,7.00
2019-02-26T07:30:54.293Z,7.30
2019-02-26T07:31:56.567Z,7.20
2019-02-26T07:32:54.076Z,6.60
2019-02-26T07:33:55.885Z,6.60
2019-02-26T07:34:53.875Z,7.00
2019-02-26T07:35:56.420Z,7.10
2019-02-26T07:36:53.696Z,7.30
2019-02-26T07:37:54.542Z,7.30
2019-02-26T07:38:54.769Z,7.40
2019-02-26T07:39:53.385Z,7.10
2019-02-26T07:40:54.368Z,7.50
2019-02-26T07:41:54.394Z,7.10
2019-02-26T07:42:53.085Z,7.20
2019-02-26T07:43:54.735Z,7.10
2019-02-26T07:44:52.888Z,6.90
2019-02-26T07:45:52.792Z,7.00
2019-02-26T07:46:52.706Z,7.30
2019-02-26T07:47:54.064Z,7.40
2019-02-26T07:48:54.045Z,7.10
2019-02-26T07:49:56.486Z,7.20
2019-02-26T07:50:52.298Z,7.10
2019-02-26T07:51:52.213Z,6.80
2019-02-26T07:52:54.091Z,7.30
2019-02-26T07:53:54.279Z,7.40
2019-02-26T07:54:51.975Z,7.60
2019-02-26T07:55:51.811Z,7.40
2019-02-26T07:56:52.489Z,7.40
2019-02-26T07:57:53.178Z,7.80
2019-02-26T07:58:51.512Z,8.00
2019-02-26T07:59:51.410Z,7.70
2019-02-26T08:00:52.194Z,7.80
2019-02-26T08:01:51.229Z,7.70
2019-02-26T08:02:52.051Z,7.30
2019-02-26T08:03:52.761Z,7.80
2019-02-26T08:04:50.920Z,7.50
2019-02-26T08:05:50.872Z,7.60
2019-02-26T08:06:52.356Z,7.60
2019-02-26T08:07:51.965Z,7.60
2019-02-26T08:08:50.526Z,7.80
2019-02-26T08:09:50.432Z,7.50
2019-02-26T08:10:51.220Z,7.20
2019-02-26T08:11:50.255Z,7.50
2019-02-26T08:12:50.135Z,7.70
2019-02-26T08:13:51.736Z,7.10
2019-02-26T08:14:50.180Z,7.20
2019-02-26T08:15:49.842Z,7.30
2019-02-26T08:16:53.632Z,7.60
2019-02-26T08:17:51.241Z,7.30
2019-02-26T08:18:51.686Z,7.20
2019-02-26T08:19:49.515Z,7.10
2019-02-26T08:20:49.353Z,7.50
2019-02-26T08:21:50.367Z,6.90
2019-02-26T08:22:51.364Z,7.50
2019-02-26T08:23:51.073Z,7.50
2019-02-26T08:24:50.900Z,6.70
2019-02-26T08:25:49.932Z,7.50
2019-02-26T08:26:49.775Z,7.00
2019-02-26T08:27:49.928Z,7.30
2019-02-26T08:28:48.677Z,7.10
2019-02-26T08:29:49.432Z,6.90
2019-02-26T08:30:49.815Z,7.00
2019-02-26T08:31:49.480Z,7.10
2019-02-26T08:32:51.147Z,6.90
2019-02-26T08:33:50.907Z,6.60
2019-02-26T08:34:47.990Z,6.60
2019-02-26T08:35:47.989Z,6.60
2019-02-26T08:36:47.812Z,6.60
2019-02-26T08:37:47.698Z,6.90
2019-02-26T08:38:47.601Z,6.80
2019-02-26T08:39:47.500Z,6.60
2019-02-26T08:40:47.407Z,6.50
2019-02-26T08:41:47.323Z,6.40
2019-02-26T08:42:47.327Z,6.70
2019-02-26T08:43:49.610Z,6.50
2019-02-26T08:44:48.674Z,6.40
2019-02-26T08:45:46.919Z,6.60
2019-02-26T08:46:48.916Z,6.60
2019-02-26T08:47:46.725Z,6.50
2019-02-26T08:48:48.378Z,7.30
2019-02-26T08:49:47.465Z,7.00
2019-02-26T08:50:46.436Z,6.40
2019-02-26T08:51:46.353Z,6.50
2019-02-26T08:52:49.430Z,6.80
2019-02-26T08:53:47.638Z,6.80
2019-02-26T08:54:46.048Z,7.30
2019-02-26T08:55:45.955Z,7.50
2019-02-26T08:56:45.968Z,7.30
2019-02-26T08:57:45.770Z,7.50
2019-02-26T08:58:45.664Z,7.40
2019-02-26T08:59:47.279Z,7.20
2019-02-26T09:00:45.471Z,7.40
2019-02-26T09:01:45.404Z,6.80
2019-02-26T09:02:46.035Z,6.60
2019-02-26T09:03:45.185Z,6.90
2019-02-26T09:04:47.816Z,7.10
2019-02-26T09:05:44.988Z,6.90
2019-02-26T09:06:44.908Z,6.70
2019-02-26T09:07:47.034Z,6.90
2019-02-26T09:08:44.703Z,6.80
2019-02-26T09:09:45.079Z,7.00
2019-02-26T09:10:46.342Z,6.60
2019-02-26T09:11:44.457Z,6.80
2019-02-26T09:12:46.858Z,7.00
2019-02-26T09:13:44.229Z,6.80
2019-02-26T09:14:45.703Z,7.00
2019-02-26T09:15:44.036Z,6.90
2019-02-26T09:16:47.667Z,6.80
2019-02-26T09:17:43.846Z,7.00
2019-02-26T09:18:44.044Z,7.40
2019-02-26T09:19:43.659Z,7.40
2019-02-26T09:20:43.572Z,7.20
2019-02-26T09:21:45.241Z,6.90
2019-02-26T09:22:47.987Z,6.80
2019-02-26T09:23:47.471Z,7.30
2019-02-26T09:24:43.183Z,7.40
2019-02-26T09:25:43.204Z,7.20
2019-02-26T09:26:43.014Z,7.20
2019-02-26T09:27:43.212Z,6.80
2019-02-26T09:28:44.603Z,7.00
2019-02-26T09:29:48.336Z,6.70
2019-02-26T09:30:42.617Z,6.90
2019-02-26T09:31:42.540Z,7.20
2019-02-26T09:32:44.729Z,7.10
2019-02-26T09:33:43.612Z,6.90
2019-02-26T09:34:42.238Z,7.00
2019-02-26T09:35:42.146Z,6.90
2019-02-26T09:36:42.052Z,6.60
2019-02-26T09:37:42.800Z,6.70
2019-02-26T09:38:43.849Z,6.80
2019-02-26T09:39:41.875Z,6.70
2019-02-26T09:40:41.673Z,6.70
2019-02-26T09:41:43.328Z,7.00
2019-02-26T09:42:41.500Z,6.60
2019-02-26T09:43:43.182Z,6.70
2019-02-26T09:44:41.299Z,7.10
2019-02-26T09:45:43.048Z,6.70
2019-02-26T09:46:43.376Z,6.80
2019-02-26T09:47:41.032Z,6.70
2019-02-26T09:48:42.923Z,7.00
2019-02-26T09:49:40.825Z,6.60
2019-02-26T09:50:43.428Z,6.80
2019-02-26T09:51:40.645Z,7.00
2019-02-26T09:52:40.562Z,6.70
2019-02-26T09:53:40.455Z,6.70
2019-02-26T09:54:42.812Z,7.40
2019-02-26T09:55:40.257Z,7.10
2019-02-26T09:56:40.166Z,7.20
2019-02-26T09:57:40.087Z,7.00
2019-02-26T09:58:41.177Z,7.40
2019-02-26T09:59:39.880Z,7.20
2019-02-26T10:00:40.583Z,7.70
2019-02-26T10:01:40.829Z,7.30
2019-02-26T10:02:40.043Z,7.30
2019-02-26T10:03:41.327Z,7.40
2019-02-26T10:04:39.411Z,7.20
2019-02-26T10:05:39.315Z,7.50
2019-02-26T10:06:40.650Z,7.30
2019-02-26T10:07:39.141Z,7.30
2019-02-26T10:08:39.034Z,7.50
2019-02-26T10:09:40.712Z,7.70
2019-02-26T10:10:39.754Z,7.80
2019-02-26T10:11:39.390Z,7.50
2019-02-26T10:12:39.362Z,7.50
2019-02-26T10:13:39.638Z,7.90
2019-02-26T10:14:38.633Z,7.60
2019-02-26T10:15:39.859Z,7.50
2019-02-26T10:16:38.277Z,7.80
2019-02-26T10:17:40.800Z,7.80
2019-02-26T10:18:38.084Z,7.90
2019-02-26T10:19:38.841Z,8.00
2019-02-26T10:20:37.907Z,7.60
2019-02-26T10:21:39.864Z,7.60
2019-02-26T10:22:38.665Z,7.90
2019-02-26T10:23:37.613Z,8.10
2019-02-26T10:24:40.398Z,8.40
2019-02-26T10:25:38.808Z,8.10
2019-02-26T10:26:39.293Z,8.00
2019-02-26T10:27:38.791Z,7.60
2019-02-26T10:28:39.467Z,8.00
2019-02-26T10:29:39.344Z,8.10
2019-02-26T10:30:40.967Z,8.40
2019-02-26T10:31:40.183Z,8.80
2019-02-26T10:32:36.780Z,8.40
2019-02-26T10:33:40.130Z,8.30
2019-02-26T10:34:36.574Z,8.50
2019-02-26T10:35:38.723Z,8.60
2019-02-26T10:36:40.641Z,8.10
2019-02-26T10:37:38.622Z,8.70
2019-02-26T10:38:38.327Z,9.00
2019-02-26T10:39:36.102Z,8.50
2019-02-26T10:40:50.118Z,8.40
2019-02-26T10:41:36.954Z,8.30
2019-02-26T10:42:39.772Z,8.20
2019-02-26T10:43:35.733Z,8.70
2019-02-26T10:44:35.639Z,8.60
2019-02-26T10:45:38.682Z,8.10
2019-02-26T10:46:37.081Z,8.90
2019-02-26T10:47:35.372Z,8.30
2019-02-26T10:48:35.262Z,8.30
2019-02-26T10:49:35.168Z,8.60
2019-02-26T10:50:37.272Z,9.00
2019-02-26T10:51:34.984Z,8.50
2019-02-26T10:52:34.909Z,8.70
2019-02-26T10:53:34.797Z,8.80
2019-02-26T10:54:37.475Z,8.90
2019-02-26T10:55:38.668Z,8.40
2019-02-26T10:56:39.104Z,9.30
2019-02-26T10:57:36.222Z,8.50
2019-02-26T10:58:34.336Z,9.00
2019-02-26T10:59:34.247Z,9.40
2019-02-26T11:00:37.190Z,8.90
2019-02-26T11:01:34.098Z,9.20
2019-02-26T11:02:33.989Z,9.00
2019-02-26T11:03:37.961Z,8.80
2019-02-26T11:04:35.532Z,9.20
2019-02-26T11:05:33.694Z,9.30
2019-02-26T11:06:36.051Z,9.20
2019-02-26T11:07:34.519Z,9.70
2019-02-26T11:08:35.069Z,9.00
2019-02-26T11:09:33.429Z,9.20
2019-02-26T11:10:33.234Z,9.40
2019-02-26T11:11:35.103Z,9.60
2019-02-26T11:12:34.045Z,9.90
2019-02-26T11:13:32.962Z,10.50
2019-02-26T11:14:35.647Z,10.20
2019-02-26T11:15:33.941Z,10.50
2019-02-26T11:16:35.269Z,10.60
2019-02-26T11:17:32.595Z,11.10
2019-02-26T11:18:34.611Z,11.20
2019-02-26T11:19:35.663Z,11.20
2019-02-26T11:20:34.268Z,10.70
2019-02-26T11:21:32.234Z,11.30
2019-02-26T11:22:32.145Z,11.20
2019-02-26T11:23:34.554Z,12.10
2019-02-26T11:24:33.684Z,11.30
2019-02-26T11:25:31.872Z,11.70
2019-02-26T11:26:32.445Z,11.10
2019-02-26T11:27:31.694Z,10.90
2019-02-26T11:28:32.943Z,11.50
2019-02-26T11:29:33.812Z,10.90
2019-02-26T11:30:32.231Z,11.80
2019-02-26T11:31:31.337Z,11.40
2019-02-26T11:32:32.623Z,11.70
2019-02-26T11:33:31.170Z,11.10
2019-02-26T11:34:33.346Z,11.10
2019-02-26T11:35:30.973Z,10.80
2019-02-26T11:36:32.951Z,11.10
2019-02-26T11:37:32.065Z,11.10
2019-02-26T11:38:30.715Z,10.90
2019-02-26T11:39:30.608Z,10.70
2019-02-26T11:40:30.821Z,9.50
2019-02-26T11:41:31.205Z,11.00
2019-02-26T11:42:30.341Z,10.50
2019-02-26T11:43:30.262Z,10.80
2019-02-26T11:44:30.257Z,10.30
2019-02-26T11:45:32.208Z,10.70
2019-02-26T11:46:34.093Z,10.40
2019-02-26T11:47:32.229Z,10.50
2019-02-26T11:48:31.278Z,10.90
2019-02-26T11:49:31.155Z,10.60
2019-02-26T11:50:29.737Z,10.40
2019-02-26T11:51:36.899Z,10.30
2019-02-26T11:52:29.437Z,10.70
2019-02-26T11:53:29.876Z,10.10
2019-02-26T11:54:34.069Z,10.00
2019-02-26T11:55:31.840Z,10.00
2019-02-26T11:56:29.068Z,9.30
2019-02-26T11:57:32.573Z,9.40
2019-02-26T11:58:29.006Z,9.20
2019-02-26T11:59:28.801Z,9.20
2019-02-26T12:00:33.853Z,9.30
2019-02-26T12:01:29.365Z,9.50
2019-02-26T12:02:33.417Z,9.50
2019-02-26T12:03:31.061Z,9.40
2019-02-26T12:04:28.463Z,9.10
2019-02-26T12:05:33.092Z,9.70
2019-02-26T12:06:28.165Z,9.20
2019-02-26T12:07:29.764Z,9.50
2019-02-26T12:08:28.001Z,9.20
2019-02-26T12:09:30.003Z,8.90
2019-02-26T12:10:30.509Z,8.60
2019-02-26T12:11:27.722Z,8.80
2019-02-26T12:12:28.397Z,8.90
2019-02-26T12:13:27.828Z,9.00
2019-02-26T12:14:27.444Z,8.90
2019-02-26T12:15:30.115Z,8.50
2019-02-26T12:16:28.499Z,8.50
2019-02-26T12:17:27.177Z,7.80
2019-02-26T12:18:27.102Z,8.60
2019-02-26T12:19:28.322Z,8.60
2019-02-26T12:20:26.906Z,8.20
2019-02-26T12:21:28.067Z,8.00
2019-02-26T12:22:27.845Z,7.50
2019-02-26T12:23:26.655Z,8.00
2019-02-26T12:24:27.146Z,7.80
2019-02-26T12:25:26.459Z,7.70
2019-02-26T12:26:27.990Z,7.70
2019-02-26T12:27:26.282Z,7.50
2019-02-26T12:28:28.314Z,7.30
2019-02-26T12:29:28.376Z,7.50
2019-02-26T12:30:26.015Z,7.30
2019-02-26T12:31:28.373Z,7.80
2019-02-26T12:32:27.496Z,7.70
2019-02-26T12:33:25.760Z,7.50
2019-02-26T12:34:25.656Z,7.40
2019-02-26T12:35:25.568Z,7.40
2019-02-26T12:36:26.616Z,7.80
2019-02-26T12:37:25.386Z,7.60
2019-02-26T12:38:25.310Z,7.10
2019-02-26T12:39:27.946Z,7.50
2019-02-26T12:40:25.573Z,7.40
2019-02-26T12:41:25.030Z,7.20
2019-02-26T12:42:24.935Z,7.70
2019-02-26T12:43:24.863Z,7.70
2019-02-26T12:44:24.754Z,7.30
2019-02-26T12:45:26.119Z,7.40
2019-02-26T12:46:27.333Z,7.30
2019-02-26T12:47:24.838Z,7.70
2019-02-26T12:48:24.423Z,7.60
2019-02-26T12:49:24.307Z,8.10
2019-02-26T12:50:29.076Z,8.00
2019-02-26T12:51:26.283Z,7.90
2019-02-26T12:52:26.863Z,7.80
2019-02-26T12:53:23.956Z,7.60
2019-02-26T12:54:24.242Z,7.60
2019-02-26T12:55:31.224Z,7.40
2019-02-26T12:56:24.178Z,7.40
2019-02-26T12:57:26.443Z,7.00
2019-02-26T12:58:24.412Z,7.70
2019-02-26T12:59:23.409Z,6.90
2019-02-26T13:00:23.324Z,7.50
2019-02-26T13:01:23.210Z,7.10
2019-02-26T13:02:25.681Z,7.40
2019-02-26T13:03:23.030Z,7.00
2019-02-26T13:04:25.042Z,7.30
2019-02-26T13:05:23.208Z,7.40
2019-02-26T13:06:23.066Z,7.50
2019-02-26T13:07:22.690Z,7.50
2019-02-26T13:08:24.157Z,7.40
2019-02-26T13:09:26.613Z,7.20
2019-02-26T13:10:22.388Z,7.90
2019-02-26T13:11:24.885Z,7.60
2019-02-26T13:12:23.926Z,7.70
2019-02-26T13:13:22.114Z,7.60
2019-02-26T13:14:22.139Z,7.30